sensor_id;sensor_type;location;lat;lon;timestamp;temperature;humidity
20370;DHT22;10344;47.592;9.600;2022-12-01T00:00:57;4.40;99.90
20370;DHT22;10344;47.592;9.600;2022-12-01T00:03:23;4.40;99.90
20370;DHT22;10344;47.592;9.600;2022-12-01T00:06:09;4.30;99.90
20370;DHT22;10344;47.592;9.600;2022-12-01T00:08:35;4.30;99.90
20370;DHT22;10344;47.592;9.600;2022-12-01T00:11:09;4.30;99.90
20370;DHT22;10344;47.592;9.600;2022-12-01T00:13:39;4.30;99.90
20370;DHT22;10344;47.592;9.600;2022-12-01T00:16:12;4.10;99.90
20370;DHT22;10344;47.592;9.600;2022-12-01T00:18:39;4.20;99.90
20370;DHT22;10344;47.592;9.600;2022-12-01T00:21:05;4.20;99.90
20370;DHT22;10344;47.592;9.600;2022-12-01T00:23:31;4.20;99.90
20370;DHT22;10344;47.592;9.600;2022-12-01T00:26:03;4.30;99.90
20370;DHT22;10344;47.592;9.600;2022-12-01T00:28:31;4.20;99.90
20370;DHT22;10344;47.592;9.600;2022-12-01T00:30:59;4.20;99.90
20370;DHT22;10344;47.592;9.600;2022-12-01T00:33:24;4.20;99.90
20370;DHT22;10344;47.592;9.600;2022-12-01T00:35:59;4.30;99.90
20370;DHT22;10344;47.592;9.600;2022-12-01T00:38:25;4.30;99.90
20370;DHT22;10344;47.592;9.600;2022-12-01T00:40:51;4.40;99.90
20370;DHT22;10344;47.592;9.600;2022-12-01T00:43:16;4.30;99.90
20370;DHT22;10344;47.592;9.600;2022-12-01T00:45:42;4.30;99.90
20370;DHT22;10344;47.592;9.600;2022-12-01T00:48:09;4.30;99.90
20370;DHT22;10344;47.592;9.600;2022-12-01T00:50:35;4.40;99.90
20370;DHT22;10344;47.592;9.600;2022-12-01T00:53:01;4.30;99.90
20370;DHT22;10344;47.592;9.600;2022-12-01T00:55:26;4.30;99.90
20370;DHT22;10344;47.592;9.600;2022-12-01T00:57:52;4.40;99.90
20370;DHT22;10344;47.592;9.600;2022-12-01T01:00:18;4.30;99.90
20370;DHT22;10344;47.592;9.600;2022-12-01T01:02:44;4.30;99.90
20370;DHT22;10344;47.592;9.600;2022-12-01T01:05:10;4.30;99.90
20370;DHT22;10344;47.592;9.600;2022-12-01T01:07:35;4.20;99.90
20370;DHT22;10344;47.592;9.600;2022-12-01T01:10:01;4.20;99.90
20370;DHT22;10344;47.592;9.600;2022-12-01T01:12:31;4.20;99.90
20370;DHT22;10344;47.592;9.600;2022-12-01T01:14:57;4.20;99.90
20370;DHT22;10344;47.592;9.600;2022-12-01T01:17:22;4.20;99.90
20370;DHT22;10344;47.592;9.600;2022-12-01T01:19:48;4.20;99.90
20370;DHT22;10344;47.592;9.600;2022-12-01T01:22:18;4.20;99.90
20370;DHT22;10344;47.592;9.600;2022-12-01T01:24:44;4.20;99.90
20370;DHT22;10344;47.592;9.600;2022-12-01T01:27:10;4.30;99.90
20370;DHT22;10344;47.592;9.600;2022-12-01T01:29:35;4.20;99.90
20370;DHT22;10344;47.592;9.600;2022-12-01T01:32:01;4.20;99.90
20370;DHT22;10344;47.592;9.600;2022-12-01T01:34:28;4.30;99.90
20370;DHT22;10344;47.592;9.600;2022-12-01T01:36:54;4.20;99.90
20370;DHT22;10344;47.592;9.600;2022-12-01T01:39:22;4.20;99.90
20370;DHT22;10344;47.592;9.600;2022-12-01T01:41:47;4.20;99.90
20370;DHT22;10344;47.592;9.600;2022-12-01T01:44:43;4.20;99.90
20370;DHT22;10344;47.592;9.600;2022-12-01T01:47:11;4.10;99.90
20370;DHT22;10344;47.592;9.600;2022-12-01T01:49:37;4.20;99.90
20370;DHT22;10344;47.592;9.600;2022-12-01T01:52:03;4.10;99.90
20370;DHT22;10344;47.592;9.600;2022-12-01T01:54:45;4.10;99.90
20370;DHT22;10344;47.592;9.600;2022-12-01T01:57:18;4.10;99.90
20370;DHT22;10344;47.592;9.600;2022-12-01T01:59:50;4.00;99.90
20370;DHT22;10344;47.592;9.600;2022-12-01T02:02:18;4.00;99.90
20370;DHT22;10344;47.592;9.600;2022-12-01T02:04:49;4.00;99.90
20370;DHT22;10344;47.592;9.600;2022-12-01T02:07:22;4.10;99.90
20370;DHT22;10344;47.592;9.600;2022-12-01T02:09:54;4.00;99.90
20370;DHT22;10344;47.592;9.600;2022-12-01T02:18:05;3.90;99.90
20370;DHT22;10344;47.592;9.600;2022-12-01T02:20:44;3.90;99.90
20370;DHT22;10344;47.592;9.600;2022-12-01T02:28:47;4.10;99.90
20370;DHT22;10344;47.592;9.600;2022-12-01T02:31:38;4.00;99.90
20370;DHT22;10344;47.592;9.600;2022-12-01T02:34:14;3.90;99.90
20370;DHT22;10344;47.592;9.600;2022-12-01T02:39:33;4.00;99.90
20370;DHT22;10344;47.592;9.600;2022-12-01T02:42:31;3.90;99.90
20370;DHT22;10344;47.592;9.600;2022-12-01T02:48:10;4.10;99.90
20370;DHT22;10344;47.592;9.600;2022-12-01T02:50:37;4.10;99.90
20370;DHT22;10344;47.592;9.600;2022-12-01T02:53:05;3.90;99.90
20370;DHT22;10344;47.592;9.600;2022-12-01T02:55:35;3.90;99.90
20370;DHT22;10344;47.592;9.600;2022-12-01T02:58:12;4.00;99.90
20370;DHT22;10344;47.592;9.600;2022-12-01T03:01:11;4.00;99.90
20370;DHT22;10344;47.592;9.600;2022-12-01T03:16:02;3.90;99.90
20370;DHT22;10344;47.592;9.600;2022-12-01T03:18:38;3.80;99.90
20370;DHT22;10344;47.592;9.600;2022-12-01T03:22:06;3.80;99.90
20370;DHT22;10344;47.592;9.600;2022-12-01T03:24:38;3.90;99.90
20370;DHT22;10344;47.592;9.600;2022-12-01T03:27:08;3.90;99.90
20370;DHT22;10344;47.592;9.600;2022-12-01T03:29:42;3.90;99.90
20370;DHT22;10344;47.592;9.600;2022-12-01T03:32:14;3.90;99.90
20370;DHT22;10344;47.592;9.600;2022-12-01T03:34:58;3.90;99.90
20370;DHT22;10344;47.592;9.600;2022-12-01T03:37:32;3.80;99.90
20370;DHT22;10344;47.592;9.600;2022-12-01T03:40:11;3.90;99.90
20370;DHT22;10344;47.592;9.600;2022-12-01T03:42:49;4.00;99.90
20370;DHT22;10344;47.592;9.600;2022-12-01T03:45:46;3.90;99.90
20370;DHT22;10344;47.592;9.600;2022-12-01T03:48:16;3.90;99.90
20370;DHT22;10344;47.592;9.600;2022-12-01T03:51:15;4.00;99.90
20370;DHT22;10344;47.592;9.600;2022-12-01T03:53:56;3.90;99.90
20370;DHT22;10344;47.592;9.600;2022-12-01T03:56:35;3.90;99.90
20370;DHT22;10344;47.592;9.600;2022-12-01T03:59:05;3.80;99.90
20370;DHT22;10344;47.592;9.600;2022-12-01T04:01:33;3.80;99.90
20370;DHT22;10344;47.592;9.600;2022-12-01T04:04:21;3.80;99.90
20370;DHT22;10344;47.592;9.600;2022-12-01T04:06:52;3.80;99.90
20370;DHT22;10344;47.592;9.600;2022-12-01T04:09:20;3.80;99.90
20370;DHT22;10344;47.592;9.600;2022-12-01T04:12:09;3.80;99.90
20370;DHT22;10344;47.592;9.600;2022-12-01T04:15:02;3.90;99.90
20370;DHT22;10344;47.592;9.600;2022-12-01T04:17:31;3.90;99.90
20370;DHT22;10344;47.592;9.600;2022-12-01T04:19:57;3.90;99.90
20370;DHT22;10344;47.592;9.600;2022-12-01T04:22:23;3.80;99.90
20370;DHT22;10344;47.592;9.600;2022-12-01T04:24:50;3.80;99.90
20370;DHT22;10344;47.592;9.600;2022-12-01T04:27:18;3.80;99.90
20370;DHT22;10344;47.592;9.600;2022-12-01T04:29:51;3.80;99.90
20370;DHT22;10344;47.592;9.600;2022-12-01T04:32:41;3.80;99.90
20370;DHT22;10344;47.592;9.600;2022-12-01T04:35:11;3.90;99.90
20370;DHT22;10344;47.592;9.600;2022-12-01T04:37:43;4.00;99.90
20370;DHT22;10344;47.592;9.600;2022-12-01T04:40:10;3.90;99.90
20370;DHT22;10344;47.592;9.600;2022-12-01T04:42:37;4.00;99.90
20370;DHT22;10344;47.592;9.600;2022-12-01T04:45:04;4.00;99.90
20370;DHT22;10344;47.592;9.600;2022-12-01T04:47:31;3.90;99.90
20370;DHT22;10344;47.592;9.600;2022-12-01T04:49:58;3.80;99.90
20370;DHT22;10344;47.592;9.600;2022-12-01T04:52:24;3.80;99.90
20370;DHT22;10344;47.592;9.600;2022-12-01T04:54:51;3.90;99.90
20370;DHT22;10344;47.592;9.600;2022-12-01T04:57:18;3.80;99.90
20370;DHT22;10344;47.592;9.600;2022-12-01T04:59:45;3.80;99.90
20370;DHT22;10344;47.592;9.600;2022-12-01T05:02:11;3.80;99.90
20370;DHT22;10344;47.592;9.600;2022-12-01T05:04:39;3.80;99.90
20370;DHT22;10344;47.592;9.600;2022-12-01T05:07:06;3.80;99.90
20370;DHT22;10344;47.592;9.600;2022-12-01T05:09:31;3.80;99.90
20370;DHT22;10344;47.592;9.600;2022-12-01T05:11:57;3.80;99.90
20370;DHT22;10344;47.592;9.600;2022-12-01T05:14:25;3.80;99.90
20370;DHT22;10344;47.592;9.600;2022-12-01T05:16:56;3.80;99.90
20370;DHT22;10344;47.592;9.600;2022-12-01T05:19:23;3.80;99.90
20370;DHT22;10344;47.592;9.600;2022-12-01T05:22:14;3.80;99.90
20370;DHT22;10344;47.592;9.600;2022-12-01T05:24:42;3.80;99.90
20370;DHT22;10344;47.592;9.600;2022-12-01T05:27:08;3.90;99.90
20370;DHT22;10344;47.592;9.600;2022-12-01T05:29:36;3.90;99.90
20370;DHT22;10344;47.592;9.600;2022-12-01T05:32:03;3.90;99.90
20370;DHT22;10344;47.592;9.600;2022-12-01T05:34:35;4.00;99.90
20370;DHT22;10344;47.592;9.600;2022-12-01T05:37:02;4.00;99.90
20370;DHT22;10344;47.592;9.600;2022-12-01T05:39:30;3.90;99.90
20370;DHT22;10344;47.592;9.600;2022-12-01T05:42:05;4.00;99.90
20370;DHT22;10344;47.592;9.600;2022-12-01T05:44:34;3.90;99.90
20370;DHT22;10344;47.592;9.600;2022-12-01T05:47:37;3.90;99.90
20370;DHT22;10344;47.592;9.600;2022-12-01T05:50:05;3.90;99.90
20370;DHT22;10344;47.592;9.600;2022-12-01T05:52:35;3.90;99.90
20370;DHT22;10344;47.592;9.600;2022-12-01T05:55:06;3.90;99.90
20370;DHT22;10344;47.592;9.600;2022-12-01T05:57:32;3.90;99.90
20370;DHT22;10344;47.592;9.600;2022-12-01T06:00:05;3.80;99.90
20370;DHT22;10344;47.592;9.600;2022-12-01T06:02:34;3.70;99.90
20370;DHT22;10344;47.592;9.600;2022-12-01T06:05:00;3.80;99.90
20370;DHT22;10344;47.592;9.600;2022-12-01T06:07:26;3.90;99.90
20370;DHT22;10344;47.592;9.600;2022-12-01T06:09:57;3.90;99.90
20370;DHT22;10344;47.592;9.600;2022-12-01T06:12:24;3.80;99.90
20370;DHT22;10344;47.592;9.600;2022-12-01T06:15:01;3.80;99.90
20370;DHT22;10344;47.592;9.600;2022-12-01T06:17:28;3.90;99.90
20370;DHT22;10344;47.592;9.600;2022-12-01T06:19:56;3.90;99.90
20370;DHT22;10344;47.592;9.600;2022-12-01T06:22:22;3.90;99.90
20370;DHT22;10344;47.592;9.600;2022-12-01T06:24:49;4.00;99.90
20370;DHT22;10344;47.592;9.600;2022-12-01T06:27:42;4.00;99.90
20370;DHT22;10344;47.592;9.600;2022-12-01T06:30:14;3.90;99.90
20370;DHT22;10344;47.592;9.600;2022-12-01T06:32:41;4.00;99.90
20370;DHT22;10344;47.592;9.600;2022-12-01T06:35:16;3.90;99.90
20370;DHT22;10344;47.592;9.600;2022-12-01T06:37:43;3.80;99.90
20370;DHT22;10344;47.592;9.600;2022-12-01T06:40:11;3.80;99.90
20370;DHT22;10344;47.592;9.600;2022-12-01T06:42:45;3.80;99.90
20370;DHT22;10344;47.592;9.600;2022-12-01T06:45:14;3.90;99.90
20370;DHT22;10344;47.592;9.600;2022-12-01T06:47:41;3.90;99.90
20370;DHT22;10344;47.592;9.600;2022-12-01T06:50:08;3.90;99.90
20370;DHT22;10344;47.592;9.600;2022-12-01T06:52:36;3.90;99.90
20370;DHT22;10344;47.592;9.600;2022-12-01T06:55:03;3.90;99.90
20370;DHT22;10344;47.592;9.600;2022-12-01T06:57:33;3.90;99.90
20370;DHT22;10344;47.592;9.600;2022-12-01T07:00:01;4.00;99.90
20370;DHT22;10344;47.592;9.600;2022-12-01T07:02:50;4.00;99.90
20370;DHT22;10344;47.592;9.600;2022-12-01T07:05:24;4.00;99.90
20370;DHT22;10344;47.592;9.600;2022-12-01T07:07:55;3.90;99.90
20370;DHT22;10344;47.592;9.600;2022-12-01T07:10:25;3.90;99.90
20370;DHT22;10344;47.592;9.600;2022-12-01T07:12:56;3.90;99.90
20370;DHT22;10344;47.592;9.600;2022-12-01T07:15:27;4.00;99.90
20370;DHT22;10344;47.592;9.600;2022-12-01T07:18:06;3.90;99.90
20370;DHT22;10344;47.592;9.600;2022-12-01T07:20:33;3.80;99.90
20370;DHT22;10344;47.592;9.600;2022-12-01T07:23:04;3.80;99.90
20370;DHT22;10344;47.592;9.600;2022-12-01T07:25:33;3.90;99.90
20370;DHT22;10344;47.592;9.600;2022-12-01T07:28:00;3.80;99.90
20370;DHT22;10344;47.592;9.600;2022-12-01T07:30:36;3.90;99.90
20370;DHT22;10344;47.592;9.600;2022-12-01T07:33:04;4.00;99.90
20370;DHT22;10344;47.592;9.600;2022-12-01T07:35:31;3.90;99.90
20370;DHT22;10344;47.592;9.600;2022-12-01T07:37:57;4.00;99.90
20370;DHT22;10344;47.592;9.600;2022-12-01T07:40:22;4.00;99.90
20370;DHT22;10344;47.592;9.600;2022-12-01T07:42:50;4.00;99.90
20370;DHT22;10344;47.592;9.600;2022-12-01T07:45:16;4.00;99.90
20370;DHT22;10344;47.592;9.600;2022-12-01T07:47:43;4.00;99.90
20370;DHT22;10344;47.592;9.600;2022-12-01T07:50:10;4.00;99.90
20370;DHT22;10344;47.592;9.600;2022-12-01T07:52:37;4.00;99.90
20370;DHT22;10344;47.592;9.600;2022-12-01T07:55:04;4.10;99.90
20370;DHT22;10344;47.592;9.600;2022-12-01T07:57:35;4.00;99.90
20370;DHT22;10344;47.592;9.600;2022-12-01T08:00:05;4.20;99.90
20370;DHT22;10344;47.592;9.600;2022-12-01T08:02:35;4.10;99.90
20370;DHT22;10344;47.592;9.600;2022-12-01T08:05:07;4.10;99.90
20370;DHT22;10344;47.592;9.600;2022-12-01T08:33:15;4.40;99.90
20370;DHT22;10344;47.592;9.600;2022-12-01T08:47:31;4.50;99.90
20370;DHT22;10344;47.592;9.600;2022-12-01T08:49:59;4.50;99.90
20370;DHT22;10344;47.592;9.600;2022-12-01T08:52:30;4.60;99.90
20370;DHT22;10344;47.592;9.600;2022-12-01T08:54:58;4.70;99.90
20370;DHT22;10344;47.592;9.600;2022-12-01T08:57:23;4.80;99.90
20370;DHT22;10344;47.592;9.600;2022-12-01T09:05:00;4.70;99.90
20370;DHT22;10344;47.592;9.600;2022-12-01T09:07:28;4.70;99.90
20370;DHT22;10344;47.592;9.600;2022-12-01T09:09:54;4.80;99.90
20370;DHT22;10344;47.592;9.600;2022-12-01T09:12:20;4.90;99.90
20370;DHT22;10344;47.592;9.600;2022-12-01T09:14:51;5.00;99.90
20370;DHT22;10344;47.592;9.600;2022-12-01T09:20:18;5.00;99.90
20370;DHT22;10344;47.592;9.600;2022-12-01T09:22:43;5.00;99.90
20370;DHT22;10344;47.592;9.600;2022-12-01T09:25:11;5.00;99.90
20370;DHT22;10344;47.592;9.600;2022-12-01T09:27:39;5.10;99.90
20370;DHT22;10344;47.592;9.600;2022-12-01T09:33:27;5.20;99.90
20370;DHT22;10344;47.592;9.600;2022-12-01T09:38:40;5.30;99.90
20370;DHT22;10344;47.592;9.600;2022-12-01T09:41:39;5.30;99.90
20370;DHT22;10344;47.592;9.600;2022-12-01T09:47:46;5.30;99.90
20370;DHT22;10344;47.592;9.600;2022-12-01T09:50:24;5.50;99.90
20370;DHT22;10344;47.592;9.600;2022-12-01T09:56:45;5.60;99.90
20370;DHT22;10344;47.592;9.600;2022-12-01T10:12:32;5.70;99.90
20370;DHT22;10344;47.592;9.600;2022-12-01T10:20:39;5.60;99.90
20370;DHT22;10344;47.592;9.600;2022-12-01T10:23:27;5.60;99.90
20370;DHT22;10344;47.592;9.600;2022-12-01T10:26:13;5.70;99.90
20370;DHT22;10344;47.592;9.600;2022-12-01T10:36:27;5.90;99.90
20370;DHT22;10344;47.592;9.600;2022-12-01T10:38:54;5.90;99.90
20370;DHT22;10344;47.592;9.600;2022-12-01T10:41:21;5.80;99.90
20370;DHT22;10344;47.592;9.600;2022-12-01T10:43:50;5.90;99.90
20370;DHT22;10344;47.592;9.600;2022-12-01T10:46:24;5.90;99.90
20370;DHT22;10344;47.592;9.600;2022-12-01T10:48:56;5.90;99.90
20370;DHT22;10344;47.592;9.600;2022-12-01T10:51:30;5.90;99.90
20370;DHT22;10344;47.592;9.600;2022-12-01T10:54:11;5.80;99.90
20370;DHT22;10344;47.592;9.600;2022-12-01T10:56:47;5.90;99.90
20370;DHT22;10344;47.592;9.600;2022-12-01T11:07:43;6.00;99.90
20370;DHT22;10344;47.592;9.600;2022-12-01T11:10:36;6.00;99.90
20370;DHT22;10344;47.592;9.600;2022-12-01T11:13:35;5.90;99.90
20370;DHT22;10344;47.592;9.600;2022-12-01T11:16:05;5.90;99.90
20370;DHT22;10344;47.592;9.600;2022-12-01T11:18:36;5.70;99.90
20370;DHT22;10344;47.592;9.600;2022-12-01T11:21:25;5.70;99.90
20370;DHT22;10344;47.592;9.600;2022-12-01T11:23:53;5.80;99.90
20370;DHT22;10344;47.592;9.600;2022-12-01T11:29:49;5.90;99.90
20370;DHT22;10344;47.592;9.600;2022-12-01T11:32:55;6.00;99.90
20370;DHT22;10344;47.592;9.600;2022-12-01T11:35:32;5.90;99.90
20370;DHT22;10344;47.592;9.600;2022-12-01T11:38:03;5.90;99.90
20370;DHT22;10344;47.592;9.600;2022-12-01T11:40:56;5.90;99.90
20370;DHT22;10344;47.592;9.600;2022-12-01T11:43:33;5.90;99.90
20370;DHT22;10344;47.592;9.600;2022-12-01T11:46:05;6.00;99.90
20370;DHT22;10344;47.592;9.600;2022-12-01T11:48:56;6.10;99.90
20370;DHT22;10344;47.592;9.600;2022-12-01T11:51:25;6.10;99.90
20370;DHT22;10344;47.592;9.600;2022-12-01T11:54:20;6.10;99.90
20370;DHT22;10344;47.592;9.600;2022-12-01T11:56:47;6.10;99.90
20370;DHT22;10344;47.592;9.600;2022-12-01T12:02:02;6.00;99.90
20370;DHT22;10344;47.592;9.600;2022-12-01T12:07:29;5.80;99.90
20370;DHT22;10344;47.592;9.600;2022-12-01T12:22:49;6.00;99.90
20370;DHT22;10344;47.592;9.600;2022-12-01T12:34:16;5.90;99.90
20370;DHT22;10344;47.592;9.600;2022-12-01T12:37:14;5.90;99.90
20370;DHT22;10344;47.592;9.600;2022-12-01T12:42:40;5.80;99.90
20370;DHT22;10344;47.592;9.600;2022-12-01T12:51:12;5.80;99.90
20370;DHT22;10344;47.592;9.600;2022-12-01T12:53:48;5.80;99.90
20370;DHT22;10344;47.592;9.600;2022-12-01T12:56:36;5.80;99.90
20370;DHT22;10344;47.592;9.600;2022-12-01T13:05:08;5.90;99.90
20370;DHT22;10344;47.592;9.600;2022-12-01T13:07:49;5.80;99.90
20370;DHT22;10344;47.592;9.600;2022-12-01T13:12:58;5.80;99.90
20370;DHT22;10344;47.592;9.600;2022-12-01T13:15:28;5.80;99.90
20370;DHT22;10344;47.592;9.600;2022-12-01T13:18:02;5.80;99.90
20370;DHT22;10344;47.592;9.600;2022-12-01T13:20:32;5.80;99.90
20370;DHT22;10344;47.592;9.600;2022-12-01T13:23:00;5.80;99.90
20370;DHT22;10344;47.592;9.600;2022-12-01T13:25:33;5.80;99.90
20370;DHT22;10344;47.592;9.600;2022-12-01T13:28:04;5.80;99.90
20370;DHT22;10344;47.592;9.600;2022-12-01T13:30:35;5.70;99.90
20370;DHT22;10344;47.592;9.600;2022-12-01T13:33:03;5.60;99.90
20370;DHT22;10344;47.592;9.600;2022-12-01T13:38:20;5.70;99.90
20370;DHT22;10344;47.592;9.600;2022-12-01T13:40:47;5.80;99.90
20370;DHT22;10344;47.592;9.600;2022-12-01T13:43:19;5.70;99.90
20370;DHT22;10344;47.592;9.600;2022-12-01T13:45:46;5.60;99.90
20370;DHT22;10344;47.592;9.600;2022-12-01T13:51:03;5.70;99.90
20370;DHT22;10344;47.592;9.600;2022-12-01T13:53:51;5.60;99.90
20370;DHT22;10344;47.592;9.600;2022-12-01T13:58:49;5.50;99.90
20370;DHT22;10344;47.592;9.600;2022-12-01T14:04:25;5.60;99.90
20370;DHT22;10344;47.592;9.600;2022-12-01T14:07:31;5.50;99.90
20370;DHT22;10344;47.592;9.600;2022-12-01T14:12:43;5.40;99.90
20370;DHT22;10344;47.592;9.600;2022-12-01T14:18:06;5.30;99.90
20370;DHT22;10344;47.592;9.600;2022-12-01T14:20:45;5.30;99.90
20370;DHT22;10344;47.592;9.600;2022-12-01T14:23:27;5.30;99.90
20370;DHT22;10344;47.592;9.600;2022-12-01T14:26:19;5.30;99.90
20370;DHT22;10344;47.592;9.600;2022-12-01T14:36:43;5.30;99.90
20370;DHT22;10344;47.592;9.600;2022-12-01T14:39:19;5.30;99.90
20370;DHT22;10344;47.592;9.600;2022-12-01T14:41:47;5.30;99.90
20370;DHT22;10344;47.592;9.600;2022-12-01T14:44:46;5.30;99.90
20370;DHT22;10344;47.592;9.600;2022-12-01T14:47:22;5.20;99.90
20370;DHT22;10344;47.592;9.600;2022-12-01T14:52:31;5.20;99.90
20370;DHT22;10344;47.592;9.600;2022-12-01T14:54:59;5.20;99.90
20370;DHT22;10344;47.592;9.600;2022-12-01T14:57:36;5.20;99.90
20370;DHT22;10344;47.592;9.600;2022-12-01T15:02:29;5.10;99.90
20370;DHT22;10344;47.592;9.600;2022-12-01T15:05:19;5.10;99.90
20370;DHT22;10344;47.592;9.600;2022-12-01T15:07:57;5.10;99.90
20370;DHT22;10344;47.592;9.600;2022-12-01T15:10:30;5.10;99.90
20370;DHT22;10344;47.592;9.600;2022-12-01T15:16:12;5.10;99.90
20370;DHT22;10344;47.592;9.600;2022-12-01T15:18:41;5.10;99.90
20370;DHT22;10344;47.592;9.600;2022-12-01T15:21:35;5.10;99.90
20370;DHT22;10344;47.592;9.600;2022-12-01T15:24:36;5.10;99.90
20370;DHT22;10344;47.592;9.600;2022-12-01T15:27:38;5.10;99.90
20370;DHT22;10344;47.592;9.600;2022-12-01T15:33:50;4.90;99.90
20370;DHT22;10344;47.592;9.600;2022-12-01T15:36:22;4.90;99.90
20370;DHT22;10344;47.592;9.600;2022-12-01T15:38:48;4.90;99.90
20370;DHT22;10344;47.592;9.600;2022-12-01T15:41:19;4.90;99.90
20370;DHT22;10344;47.592;9.600;2022-12-01T15:43:55;4.80;99.90
20370;DHT22;10344;47.592;9.600;2022-12-01T15:46:35;4.80;99.90
20370;DHT22;10344;47.592;9.600;2022-12-01T15:49:29;4.70;99.90
20370;DHT22;10344;47.592;9.600;2022-12-01T15:52:06;4.80;99.90
20370;DHT22;10344;47.592;9.600;2022-12-01T15:54:53;4.80;99.90
20370;DHT22;10344;47.592;9.600;2022-12-01T15:57:27;4.80;99.90
20370;DHT22;10344;47.592;9.600;2022-12-01T15:59:56;4.70;99.90
20370;DHT22;10344;47.592;9.600;2022-12-01T16:02:31;4.80;99.90
20370;DHT22;10344;47.592;9.600;2022-12-01T16:05:15;4.80;99.90
20370;DHT22;10344;47.592;9.600;2022-12-01T16:07:47;4.80;99.90
20370;DHT22;10344;47.592;9.600;2022-12-01T16:17:45;4.80;99.90
20370;DHT22;10344;47.592;9.600;2022-12-01T16:20:38;4.70;99.90
20370;DHT22;10344;47.592;9.600;2022-12-01T16:23:19;4.70;99.90
20370;DHT22;10344;47.592;9.600;2022-12-01T16:26:07;4.70;99.90
20370;DHT22;10344;47.592;9.600;2022-12-01T16:28:35;4.60;99.90
20370;DHT22;10344;47.592;9.600;2022-12-01T16:31:04;4.70;99.90
20370;DHT22;10344;47.592;9.600;2022-12-01T16:33:35;4.80;99.90
20370;DHT22;10344;47.592;9.600;2022-12-01T16:36:02;4.80;99.90
20370;DHT22;10344;47.592;9.600;2022-12-01T16:38:29;4.70;99.90
20370;DHT22;10344;47.592;9.600;2022-12-01T16:41:00;4.70;99.90
20370;DHT22;10344;47.592;9.600;2022-12-01T16:43:28;4.70;99.90
20370;DHT22;10344;47.592;9.600;2022-12-01T16:45:59;4.70;99.90
20370;DHT22;10344;47.592;9.600;2022-12-01T16:48:25;4.70;99.90
20370;DHT22;10344;47.592;9.600;2022-12-01T16:50:52;4.70;99.90
20370;DHT22;10344;47.592;9.600;2022-12-01T16:53:18;4.70;99.90
20370;DHT22;10344;47.592;9.600;2022-12-01T16:55:58;4.70;99.90
20370;DHT22;10344;47.592;9.600;2022-12-01T16:58:24;4.70;99.90
20370;DHT22;10344;47.592;9.600;2022-12-01T17:00:50;4.60;99.90
20370;DHT22;10344;47.592;9.600;2022-12-01T17:03:25;4.60;99.90
20370;DHT22;10344;47.592;9.600;2022-12-01T17:05:51;4.70;99.90
20370;DHT22;10344;47.592;9.600;2022-12-01T17:08:18;4.60;99.90
20370;DHT22;10344;47.592;9.600;2022-12-01T17:10:45;4.70;99.90
20370;DHT22;10344;47.592;9.600;2022-12-01T17:13:12;4.70;99.90
20370;DHT22;10344;47.592;9.600;2022-12-01T17:15:41;4.70;99.90
20370;DHT22;10344;47.592;9.600;2022-12-01T17:18:07;4.70;99.90
20370;DHT22;10344;47.592;9.600;2022-12-01T17:20:35;4.70;99.90
20370;DHT22;10344;47.592;9.600;2022-12-01T17:23:01;4.60;99.90
20370;DHT22;10344;47.592;9.600;2022-12-01T17:25:33;4.60;99.90
20370;DHT22;10344;47.592;9.600;2022-12-01T17:28:07;4.60;99.90
20370;DHT22;10344;47.592;9.600;2022-12-01T17:30:47;4.50;99.90
20370;DHT22;10344;47.592;9.600;2022-12-01T17:33:17;4.50;99.90
20370;DHT22;10344;47.592;9.600;2022-12-01T17:36:32;4.40;99.90
20370;DHT22;10344;47.592;9.600;2022-12-01T17:39:03;4.40;99.90
20370;DHT22;10344;47.592;9.600;2022-12-01T17:41:33;4.50;99.90
20370;DHT22;10344;47.592;9.600;2022-12-01T17:44:06;4.50;99.90
20370;DHT22;10344;47.592;9.600;2022-12-01T17:46:55;4.50;99.90
20370;DHT22;10344;47.592;9.600;2022-12-01T17:49:25;4.50;99.90
20370;DHT22;10344;47.592;9.600;2022-12-01T17:52:43;4.50;99.90
20370;DHT22;10344;47.592;9.600;2022-12-01T17:55:30;4.40;99.90
20370;DHT22;10344;47.592;9.600;2022-12-01T17:58:29;4.40;99.90
20370;DHT22;10344;47.592;9.600;2022-12-01T18:01:01;4.40;99.90
20370;DHT22;10344;47.592;9.600;2022-12-01T18:03:29;4.40;99.90
20370;DHT22;10344;47.592;9.600;2022-12-01T18:06:11;4.40;99.90
20370;DHT22;10344;47.592;9.600;2022-12-01T18:09:00;4.40;99.90
20370;DHT22;10344;47.592;9.600;2022-12-01T18:11:38;4.50;99.90
20370;DHT22;10344;47.592;9.600;2022-12-01T18:14:19;4.50;99.90
20370;DHT22;10344;47.592;9.600;2022-12-01T18:17:13;4.50;99.90
20370;DHT22;10344;47.592;9.600;2022-12-01T18:20:11;4.50;99.90
20370;DHT22;10344;47.592;9.600;2022-12-01T18:22:39;4.50;99.90
20370;DHT22;10344;47.592;9.600;2022-12-01T18:25:33;4.40;99.90
20370;DHT22;10344;47.592;9.600;2022-12-01T18:28:33;4.40;99.90
20370;DHT22;10344;47.592;9.600;2022-12-01T18:31:08;4.50;99.90
20370;DHT22;10344;47.592;9.600;2022-12-01T18:33:36;4.50;99.90
20370;DHT22;10344;47.592;9.600;2022-12-01T18:36:03;4.50;99.90
20370;DHT22;10344;47.592;9.600;2022-12-01T18:38:29;4.50;99.90
20370;DHT22;10344;47.592;9.600;2022-12-01T18:40:58;4.50;99.90
20370;DHT22;10344;47.592;9.600;2022-12-01T18:43:33;4.50;99.90
20370;DHT22;10344;47.592;9.600;2022-12-01T18:46:02;4.40;99.90
20370;DHT22;10344;47.592;9.600;2022-12-01T18:48:27;4.40;99.90
20370;DHT22;10344;47.592;9.600;2022-12-01T18:50:53;4.50;99.90
20370;DHT22;10344;47.592;9.600;2022-12-01T18:53:19;4.50;99.90
20370;DHT22;10344;47.592;9.600;2022-12-01T18:55:44;4.60;99.90
20370;DHT22;10344;47.592;9.600;2022-12-01T18:58:10;4.50;99.90
20370;DHT22;10344;47.592;9.600;2022-12-01T19:00:36;4.40;99.90
20370;DHT22;10344;47.592;9.600;2022-12-01T19:03:01;4.40;99.90
20370;DHT22;10344;47.592;9.600;2022-12-01T19:05:31;4.40;99.90
20370;DHT22;10344;47.592;9.600;2022-12-01T19:08:01;4.40;99.90
20370;DHT22;10344;47.592;9.600;2022-12-01T19:10:26;4.40;99.90
20370;DHT22;10344;47.592;9.600;2022-12-01T19:12:52;4.30;99.90
20370;DHT22;10344;47.592;9.600;2022-12-01T19:15:17;4.30;99.90
20370;DHT22;10344;47.592;9.600;2022-12-01T19:17:43;4.30;99.90
20370;DHT22;10344;47.592;9.600;2022-12-01T19:20:09;4.30;99.90
20370;DHT22;10344;47.592;9.600;2022-12-01T19:22:35;4.30;99.90
20370;DHT22;10344;47.592;9.600;2022-12-01T19:25:13;4.30;99.90
20370;DHT22;10344;47.592;9.600;2022-12-01T19:27:43;4.30;99.90
20370;DHT22;10344;47.592;9.600;2022-12-01T19:30:13;4.30;99.90
20370;DHT22;10344;47.592;9.600;2022-12-01T19:32:54;4.30;99.90
20370;DHT22;10344;47.592;9.600;2022-12-01T19:35:26;4.30;99.90
20370;DHT22;10344;47.592;9.600;2022-12-01T19:41:42;4.30;99.90
20370;DHT22;10344;47.592;9.600;2022-12-01T19:44:16;4.20;99.90
20370;DHT22;10344;47.592;9.600;2022-12-01T19:47:33;4.20;99.90
20370;DHT22;10344;47.592;9.600;2022-12-01T19:50:02;4.30;99.90
20370;DHT22;10344;47.592;9.600;2022-12-01T19:53:10;4.30;99.90
20370;DHT22;10344;47.592;9.600;2022-12-01T19:56:01;4.20;99.90
20370;DHT22;10344;47.592;9.600;2022-12-01T19:58:27;4.20;99.90
20370;DHT22;10344;47.592;9.600;2022-12-01T20:00:53;4.30;99.90
20370;DHT22;10344;47.592;9.600;2022-12-01T20:03:18;4.30;99.90